Time;durP1;ratioP1;P1;durP2;ratioP2;P2;SDS_P1;SDS_P2;PMS_P1;PMS_P2;Temp;Humidity;BMP_temperature;BMP_pressure;BME280_temperature;BME280_humidity;BME280_pressure;Samples;Min_cycle;Max_cycle;Signal;HPM_P1;HPM_P2
2022/10/28 00:00:16;;;;;;;;;;;;;;;19.90;47.64;96387.41;6125905;19;2022;-73
2022/10/28 00:02:20;;;;;;;;;;;;;;;19.90;47.71;96387.41;6125359;19;1802;-73
2022/10/28 00:04:23;;;;;;;;;;;;;;;19.91;47.39;96390.88;6125135;19;1789;-72
2022/10/28 00:06:28;;;;;;;;;;;;;;;19.88;47.48;96382.22;6122677;19;1856;-73
2022/10/28 00:08:32;;;;;;;;;;;;;;;19.91;47.30;96380.22;6114528;19;1655;-71
2022/10/28 00:10:38;;;;;;;;;;;;;;;19.90;47.31;96374.06;6110209;19;1095;-72
2022/10/28 00:12:41;;;;;;;;;;;;;;;19.91;47.66;96380.22;6124142;19;1852;-73
2022/10/28 00:14:44;;;;;;;;;;;;;;;19.91;47.51;96380.22;6125745;19;2078;-73
2022/10/28 00:16:48;;;;;;;;;;;;;;;19.91;47.57;96382.88;6124516;19;2012;-72
2022/10/28 00:18:52;;;;;;;;;;;;;;;19.89;47.92;96381.22;6122967;19;1852;-73
2022/10/28 00:21:00;;;;;;;;;;;;;;;19.90;47.86;96384.72;6102923;19;1998;-73
2022/10/28 00:23:04;;;;;;;;;;;;;;;19.89;47.39;96375.06;6124542;19;1880;-73
2022/10/28 00:25:07;;;;;;;;;;;;;;;19.90;47.68;96379.41;6121788;19;1053;-73
2022/10/28 00:27:13;;;;;;;;;;;;;;;19.89;47.28;96372.41;6123585;19;1658;-73
2022/10/28 00:29:18;;;;;;;;;;;;;;;19.89;47.79;96383.91;6124978;19;1791;-73
2022/10/28 00:31:22;;;;;;;;;;;;;;;19.89;47.71;96373.22;6115590;19;1863;-72
2022/10/28 00:33:25;;;;;;;;;;;;;;;19.90;47.75;96374.06;6110653;19;2028;-72
2022/10/28 00:35:28;;;;;;;;;;;;;;;19.91;47.86;96370.38;6122155;19;1769;-72
2022/10/28 00:37:32;;;;;;;;;;;;;;;19.92;47.43;96371.19;6122852;19;1732;-73
2022/10/28 00:39:35;;;;;;;;;;;;;;;19.89;47.67;96373.22;6119954;19;1421;-72
2022/10/28 00:41:40;;;;;;;;;;;;;;;19.89;47.43;96370.56;6123637;19;1868;-73
2022/10/28 00:43:47;;;;;;;;;;;;;;;19.89;47.45;96375.06;6103616;19;1595;-73
2022/10/28 00:45:50;;;;;;;;;;;;;;;19.89;47.38;96367.91;6123013;19;1829;-73
2022/10/28 00:47:55;;;;;;;;;;;;;;;19.88;47.63;96366.22;6121347;19;1139;-73
2022/10/28 00:50:00;;;;;;;;;;;;;;;19.88;47.28;96365.38;6121200;19;1028;-73
2022/10/28 00:52:05;;;;;;;;;;;;;;;19.89;47.71;96367.91;6123222;19;1913;-73
2022/10/28 00:54:09;;;;;;;;;;;;;;;19.87;47.58;96369.91;6123822;19;1989;-73
2022/10/28 00:56:13;;;;;;;;;;;;;;;19.89;47.52;96372.41;6105264;19;1704;-73
2022/10/28 00:58:16;;;;;;;;;;;;;;;19.88;47.28;96376.88;6124699;19;1797;-73
2022/10/28 01:00:22;;;;;;;;;;;;;;;19.87;47.58;96369.91;6124864;19;1847;-72
2022/10/28 01:02:26;;;;;;;;;;;;;;;19.87;47.51;96369.06;6122527;19;1705;-73
2022/10/28 01:04:30;;;;;;;;;;;;;;;19.87;47.65;96380.56;6122460;19;1864;-77
2022/10/28 01:06:33;;;;;;;;;;;;;;;19.87;47.68;96372.56;6101973;19;1855;-70
2022/10/28 01:08:36;;;;;;;;;;;;;;;19.92;47.38;96369.38;6120031;19;1982;-72
2022/10/28 01:10:55;;;;;;;;;;;;;;;19.95;47.49;96369.03;6121509;19;1061;-77
2022/10/28 01:13:08;;;;;;;;;;;;;;;19.96;47.41;96367.19;6122052;19;1845;-79
2022/10/28 01:15:14;;;;;;;;;;;;;;;19.95;47.72;96373.53;6122600;19;1160;-80
2022/10/28 01:17:25;;;;;;;;;;;;;;;19.95;47.71;96368.22;6116046;19;1047;-81
2022/10/28 01:19:50;;;;;;;;;;;;;;;19.90;47.98;96368.72;6115604;19;1511;-81
2022/10/28 01:22:06;;;;;;;;;;;;;;;19.89;47.58;96369.75;6122578;19;1647;-82
2022/10/28 01:24:17;;;;;;;;;;;;;;;19.90;47.61;96366.06;6122712;19;1156;-80
2022/10/28 01:26:38;;;;;;;;;;;;;;;19.89;47.85;96367.91;6124285;19;1423;-80
2022/10/28 01:28:59;;;;;;;;;;;;;;;19.88;47.51;96368.88;6117754;19;1524;-79
2022/10/28 01:31:17;;;;;;;;;;;;;;;19.88;47.80;96374.22;6119895;19;1140;-80
2022/10/28 01:33:26;;;;;;;;;;;;;;;19.88;47.86;96368.88;6124146;19;1845;-78
2022/10/28 01:35:34;;;;;;;;;;;;;;;19.89;47.60;96377.75;6124057;19;1752;-80
2022/10/28 01:37:40;;;;;;;;;;;;;;;19.91;48.00;96372.22;6122248;19;966;-80
2022/10/28 01:39:46;;;;;;;;;;;;;;;19.88;47.95;96376.06;6121209;19;1414;-79
2022/10/28 01:41:52;;;;;;;;;;;;;;;19.89;47.71;96383.91;6114939;19;1057;-81
2022/10/28 01:43:58;;;;;;;;;;;;;;;19.88;47.99;96376.06;6124856;19;1753;-82
2022/10/28 01:46:03;;;;;;;;;;;;;;;19.88;47.84;96374.22;6123212;19;1014;-83
2022/10/28 01:48:09;;;;;;;;;;;;;;;19.89;48.00;96377.75;6120557;19;1534;-80
2022/10/28 01:50:19;;;;;;;;;;;;;;;19.88;47.67;96371.56;6126797;19;1413;-81
2022/10/28 01:52:24;;;;;;;;;;;;;;;19.88;47.77;96373.38;6114214;19;1843;-81
2022/10/28 01:54:29;;;;;;;;;;;;;;;19.89;47.63;96378.56;6129212;19;1519;-81
2022/10/28 01:56:34;;;;;;;;;;;;;;;19.88;47.64;96382.22;6129490;19;1777;-79
2022/10/28 01:58:39;;;;;;;;;;;;;;;19.88;48.05;96384.88;6123975;19;1876;-82
2022/10/28 04:34:27;;;;;;;;;;;;;;;18.35;44.76;96400.84;6146632;19;1405;-68
2022/10/28 04:36:30;;;;;;;;;;;;;;;18.47;45.17;96400.41;6148768;19;985;-68
2022/10/28 04:38:34;;;;;;;;;;;;;;;18.61;44.64;96398.06;6147467;19;1165;-69
2022/10/28 04:40:37;;;;;;;;;;;;;;;18.72;45.00;96403.94;6148788;19;974;-69
2022/10/28 04:42:41;;;;;;;;;;;;;;;18.83;44.57;96401.94;6126927;19;1851;-69
2022/10/28 04:44:44;;;;;;;;;;;;;;;18.91;44.66;96402.75;6148061;19;1014;-69
2022/10/28 04:46:47;;;;;;;;;;;;;;;18.33;40.30;96401.88;6148427;19;1064;-67
2022/10/28 04:48:51;;;;;;;;;;;;;;;18.05;40.17;96403.97;6148659;19;1061;-67
2022/10/28 04:50:58;;;;;;;;;;;;;;;17.84;39.50;96390.25;6148132;19;1128;-68
2022/10/28 04:53:02;;;;;;;;;;;;;;;17.65;38.99;96400.13;6137459;19;1560;-67
2022/10/28 04:55:05;;;;;;;;;;;;;;;17.62;39.20;96392.47;6137077;19;1196;-67
2022/10/28 04:57:09;;;;;;;;;;;;;;;17.56;38.72;96398.41;6148863;19;961;-67
2022/10/28 04:59:12;;;;;;;;;;;;;;;17.54;38.98;96399.56;6147985;19;1124;-67
2022/10/28 05:01:16;;;;;;;;;;;;;;;17.50;38.57;96403.53;6147461;19;1005;-67
2022/10/28 05:03:19;;;;;;;;;;;;;;;17.43;38.70;96400.66;6147153;19;1852;-67
2022/10/28 05:05:23;;;;;;;;;;;;;;;17.31;38.17;96399.28;6126432;19;1345;-67
2022/10/28 05:07:29;;;;;;;;;;;;;;;17.26;38.60;96407.72;6147994;19;1310;-67
2022/10/28 05:09:32;;;;;;;;;;;;;;;17.30;38.46;96405.56;6147382;19;1152;-67
2022/10/28 05:11:36;;;;;;;;;;;;;;;17.25;38.72;96399.91;6148087;19;982;-67
2022/10/28 05:13:40;;;;;;;;;;;;;;;17.27;38.63;96404.09;6147736;19;1239;-68
2022/10/28 05:15:43;;;;;;;;;;;;;;;17.30;38.36;96409.09;6136753;19;1070;-67
2022/10/28 05:17:47;;;;;;;;;;;;;;;17.24;38.19;96408.84;6136939;19;1252;-67
2022/10/28 05:19:50;;;;;;;;;;;;;;;17.25;38.28;96407.88;6147179;19;1116;-67
2022/10/28 05:21:54;;;;;;;;;;;;;;;17.24;38.62;96411.50;6148344;19;1209;-67
2022/10/28 05:24:00;;;;;;;;;;;;;;;17.20;38.65;96416.31;6145448;19;1857;-67
2022/10/28 05:26:03;;;;;;;;;;;;;;;17.44;38.48;96410.28;6147692;19;957;-67
2022/10/28 05:28:07;;;;;;;;;;;;;;;17.75;39.10;96421.28;6125456;19;1061;-69
2022/10/28 05:30:11;;;;;;;;;;;;;;;18.01;39.31;96415.94;6146260;19;1116;-68
2022/10/28 05:32:14;;;;;;;;;;;;;;;18.24;39.26;96421.47;6146853;19;1062;-69
2022/10/28 05:34:17;;;;;;;;;;;;;;;18.39;39.43;96421.66;6145237;19;1087;-69
2022/10/28 05:36:21;;;;;;;;;;;;;;;18.50;39.40;96423.19;6146949;19;1226;-68
2022/10/28 05:38:24;;;;;;;;;;;;;;;18.57;39.38;96429.50;6136123;19;1219;-69
2022/10/28 05:40:31;;;;;;;;;;;;;;;18.65;40.00;96431.34;6135010;19;1121;-69
2022/10/28 05:42:34;;;;;;;;;;;;;;;18.70;39.83;96427.22;6146837;19;1025;-70
2022/10/28 05:44:38;;;;;;;;;;;;;;;18.75;40.09;96427.59;6133932;19;1850;-68
2022/10/28 05:46:41;;;;;;;;;;;;;;;18.81;40.05;96434.06;6122791;19;1025;-68
2022/10/28 05:48:44;;;;;;;;;;;;;;;18.87;40.10;96436.06;6123027;19;1199;-70
2022/10/28 05:50:48;;;;;;;;;;;;;;;18.90;39.91;96440.22;6099930;19;1157;-69
2022/10/28 05:52:51;;;;;;;;;;;;;;;18.93;39.50;96432.72;6122114;19;1053;-69
2022/10/28 05:54:55;;;;;;;;;;;;;;;18.96;39.50;96448.38;6122477;19;1112;-69
2022/10/28 05:57:01;;;;;;;;;;;;;;;18.97;39.50;96446.53;6122885;19;982;-69
2022/10/28 05:59:04;;;;;;;;;;;;;;;18.98;39.94;96449.06;6122734;19;1047;-69
2022/10/28 06:01:08;;;;;;;;;;;;;;;18.98;39.97;96442.91;6110404;19;1066;-70
2022/10/28 06:03:13;;;;;;;;;;;;;;;19.01;39.64;96447.91;6110464;19;1830;-75
2022/10/28 06:05:17;;;;;;;;;;;;;;;19.03;39.61;96451.19;6124148;19;1303;-77
2022/10/28 06:07:20;;;;;;;;;;;;;;;19.06;39.95;96469.50;6124050;19;1053;-77
2022/10/28 06:09:23;;;;;;;;;;;;;;;19.07;39.72;96457.06;6124257;19;1049;-78
2022/10/28 06:11:27;;;;;;;;;;;;;;;19.11;39.69;96461.03;6124004;19;1065;-74
2022/10/28 06:13:33;;;;;;;;;;;;;;;19.12;39.68;96455.56;6101351;19;1431;-79
2022/10/28 06:15:36;;;;;;;;;;;;;;;19.14;39.68;96455.38;6124205;19;1044;-78
2022/10/28 06:17:39;;;;;;;;;;;;;;;19.15;39.89;96471.19;6121518;19;1484;-69
2022/10/28 06:19:43;;;;;;;;;;;;;;;19.17;39.83;96468.34;6123159;19;1085;-71
2022/10/28 06:21:46;;;;;;;;;;;;;;;19.18;39.61;96470.03;6122543;19;1025;-73
2022/10/28 06:23:50;;;;;;;;;;;;;;;19.18;40.16;96467.38;6115183;19;1845;-73
2022/10/28 06:25:57;;;;;;;;;;;;;;;19.18;40.21;96470.88;6113638;19;1072;-75
2022/10/28 06:28:02;;;;;;;;;;;;;;;19.17;40.30;96473.69;6122709;19;1005;-75
2022/10/28 06:30:09;;;;;;;;;;;;;;;19.19;40.20;96477.84;6123058;19;1033;-73
2022/10/28 06:32:12;;;;;;;;;;;;;;;19.20;40.47;96487.50;6122827;19;1104;-74
2022/10/28 06:34:15;;;;;;;;;;;;;;;19.20;40.79;96481.34;6121820;19;1101;-75
2022/10/28 06:36:19;;;;;;;;;;;;;;;19.21;40.68;96472.38;6106967;19;1060;-75
2022/10/28 06:38:22;;;;;;;;;;;;;;;19.22;40.66;96471.34;6120861;19;1493;-74
2022/10/28 06:40:26;;;;;;;;;;;;;;;19.24;40.87;96479.19;6122678;19;1032;-75
2022/10/28 06:42:29;;;;;;;;;;;;;;;19.26;40.93;96487.84;6122407;19;1041;-75
2022/10/28 06:44:32;;;;;;;;;;;;;;;19.27;40.96;96485.03;6121509;19;1853;-78
2022/10/28 06:46:38;;;;;;;;;;;;;;;19.26;40.86;96478.00;6113051;19;1097;-72
2022/10/28 06:48:42;;;;;;;;;;;;;;;19.28;40.85;96469.84;6111337;19;1098;-71
2022/10/28 06:50:45;;;;;;;;;;;;;;;19.29;41.13;96472.38;6121577;19;1066;-72
2022/10/28 06:52:48;;;;;;;;;;;;;;;19.31;41.05;96474.84;6120504;19;1030;-71
2022/10/28 06:54:51;;;;;;;;;;;;;;;19.31;41.14;96474.84;6121633;19;938;-71
2022/10/28 06:56:55;;;;;;;;;;;;;;;19.30;41.24;96474.03;6119374;19;1021;-72
2022/10/28 06:58:58;;;;;;;;;;;;;;;19.32;41.26;96473.84;6100952;19;1038;-72
2022/10/28 07:01:04;;;;;;;;;;;;;;;19.30;41.37;96479.34;6121426;19;1036;-73
2022/10/28 07:03:11;;;;;;;;;;;;;;;19.32;41.57;96466.69;6121390;19;1148;-71
2022/10/28 07:05:14;;;;;;;;;;;;;;;19.33;41.68;96467.53;6119653;19;1882;-71
2022/10/28 07:07:18;;;;;;;;;;;;;;;19.34;41.69;96470.00;6121011;19;1056;-72
2022/10/28 07:09:21;;;;;;;;;;;;;;;19.08;40.02;96477.34;6111761;19;1104;-70
2022/10/28 07:11:25;;;;;;;;;;;;;;;18.25;39.18;96462.22;6109952;19;1104;-69
2022/10/28 07:13:28;;;;;;;;;;;;;;;17.83;39.24;96466.53;6120831;19;958;-69
2022/10/28 07:15:32;;;;;;;;;;;;;;;17.63;39.26;96463.22;6120231;19;1164;-69
2022/10/28 07:17:35;;;;;;;;;;;;;;;17.55;39.29;96468.50;6121473;19;1009;-70
2022/10/28 07:19:41;;;;;;;;;;;;;;;17.69;39.18;96468.91;6120741;19;1116;-69
2022/10/28 07:21:44;;;;;;;;;;;;;;;17.54;39.26;96473.97;6097464;19;1378;-69
2022/10/28 07:23:48;;;;;;;;;;;;;;;17.43;39.34;96472.41;6120562;19;1853;-69
2022/10/28 07:25:55;;;;;;;;;;;;;;;17.47;39.42;96462.31;6120443;19;1132;-69
2022/10/28 07:27:58;;;;;;;;;;;;;;;17.50;39.23;96470.81;6120464;19;1020;-69
2022/10/28 07:30:01;;;;;;;;;;;;;;;17.54;39.41;96468.66;6119606;19;1042;-69
2022/10/28 07:32:05;;;;;;;;;;;;;;;17.34;39.49;96465.38;6110153;19;1089;-69
2022/10/28 07:34:08;;;;;;;;;;;;;;;17.29;39.73;96470.31;6108529;19;1079;-69
2022/10/28 07:36:14;;;;;;;;;;;;;;;17.27;39.35;96465.19;6119589;19;1050;-69
2022/10/28 07:38:18;;;;;;;;;;;;;;;17.24;39.38;96469.94;6120560;19;978;-69
2022/10/28 07:40:21;;;;;;;;;;;;;;;17.18;39.72;96466.91;6119730;19;1033;-69
2022/10/28 07:42:25;;;;;;;;;;;;;;;17.25;40.04;96464.50;6119620;19;1074;-69
2022/10/28 07:44:28;;;;;;;;;;;;;;;17.35;39.80;96469.69;6096954;19;1833;-69
2022/10/28 07:46:31;;;;;;;;;;;;;;;17.48;39.68;96459.50;6120601;19;978;-74
2022/10/28 07:50:45;;;;;;;;;;;;;;;18.18;39.33;96458.53;6098514;19;1603;-71
2022/10/28 07:52:51;;;;;;;;;;;;;;;18.35;39.30;96468.22;6117151;19;2293;-71
2022/10/28 07:54:54;;;;;;;;;;;;;;;18.46;39.20;96465.25;6104975;19;1016;-69
2022/10/28 07:56:57;;;;;;;;;;;;;;;18.55;39.47;96466.97;6104504;19;1086;-69
2022/10/28 07:59:01;;;;;;;;;;;;;;;18.62;39.65;96469.78;6118425;19;1031;-69
2022/10/28 08:01:05;;;;;;;;;;;;;;;18.68;39.30;96463.00;6119262;19;1026;-69
2022/10/28 08:03:08;;;;;;;;;;;;;;;18.72;39.33;96459.88;6118624;19;956;-69
2022/10/28 08:05:12;;;;;;;;;;;;;;;18.77;39.54;96457.50;6117559;19;1863;-71
2022/10/28 08:07:15;;;;;;;;;;;;;;;18.82;39.79;96467.69;6089628;19;1018;-69
2022/10/28 08:09:21;;;;;;;;;;;;;;;18.85;39.72;96464.69;6118786;19;979;-72
2022/10/28 08:11:26;;;;;;;;;;;;;;;18.89;39.46;96459.84;6119287;19;1120;-71
2022/10/28 08:13:30;;;;;;;;;;;;;;;18.90;39.42;96459.69;6118339;19;953;-72
2022/10/28 08:15:35;;;;;;;;;;;;;;;18.91;39.69;96463.19;6117173;19;1494;-72
2022/10/28 08:17:38;;;;;;;;;;;;;;;18.92;39.75;96460.38;6104774;19;1097;-72
2022/10/28 08:19:42;;;;;;;;;;;;;;;18.93;39.70;96470.03;6103977;19;1116;-71
2022/10/28 08:21:45;;;;;;;;;;;;;;;18.95;39.55;96462.72;6117249;19;1057;-71
2022/10/28 08:23:48;;;;;;;;;;;;;;;18.96;39.87;96461.69;6116337;19;1837;-71
2022/10/28 08:25:55;;;;;;;;;;;;;;;18.96;39.68;96461.69;6117636;19;1033;-71
2022/10/28 08:27:59;;;;;;;;;;;;;;;18.98;39.72;96470.38;6117319;19;1076;-71
2022/10/28 08:30:02;;;;;;;;;;;;;;;18.99;39.62;96465.88;6089672;19;1067;-72
2022/10/28 08:32:06;;;;;;;;;;;;;;;18.99;39.72;96469.34;6118499;19;1002;-72
2022/10/28 08:34:09;;;;;;;;;;;;;;;19.00;39.90;96468.34;6117444;19;1077;-71
2022/10/28 08:36:14;;;;;;;;;;;;;;;19.05;39.99;96467.03;6117047;19;1089;-70
2022/10/28 08:38:17;;;;;;;;;;;;;;;19.07;40.32;96467.72;6116377;19;1480;-70
2022/10/28 08:40:22;;;;;;;;;;;;;;;19.09;40.15;96471.00;6104056;19;1060;-70
2022/10/28 08:42:35;;;;;;;;;;;;;;;19.08;40.58;96464.03;6102860;19;1049;-69
2022/10/28 08:44:45;;;;;;;;;;;;;;;19.10;40.56;96462.03;6116904;19;1841;-71
2022/10/28 08:46:54;;;;;;;;;;;;;;;19.12;40.43;96470.69;6117697;19;1049;-71
2022/10/28 08:48:57;;;;;;;;;;;;;;;19.14;40.62;96461.53;6117653;19;1053;-70
2022/10/28 08:51:03;;;;;;;;;;;;;;;19.15;40.59;96459.69;6115228;19;1283;-71
2022/10/28 08:53:12;;;;;;;;;;;;;;;19.17;40.48;96452.38;6088696;19;1159;-73
2022/10/28 08:55:16;;;;;;;;;;;;;;;19.19;40.66;96461.03;6117234;19;1116;-72
2022/10/28 08:57:22;;;;;;;;;;;;;;;19.20;40.77;96457.34;6116466;19;1020;-72
2022/10/28 08:59:31;;;;;;;;;;;;;;;19.19;40.56;96451.19;6117304;19;1195;-72
2022/10/28 09:01:40;;;;;;;;;;;;;;;19.21;40.70;96448.38;6115305;19;1445;-72
2022/10/28 09:03:45;;;;;;;;;;;;;;;19.22;40.54;96445.53;6089493;19;1112;-72
2022/10/28 09:05:51;;;;;;;;;;;;;;;19.23;40.82;96451.69;6115240;19;1893;-71
2022/10/28 09:07:55;;;;;;;;;;;;;;;19.23;40.91;96446.34;6117037;19;1096;-73
2022/10/28 09:09:58;;;;;;;;;;;;;;;19.25;41.14;96446.22;6117259;19;1115;-73
2022/10/28 09:12:15;;;;;;;;;;;;;;;19.25;40.83;96443.53;6116218;19;1045;-74
2022/10/28 09:14:29;;;;;;;;;;;;;;;19.26;41.00;96440.69;6103374;19;1142;-73
2022/10/28 09:16:40;;;;;;;;;;;;;;;19.26;41.26;96435.34;6102803;19;990;-74
2022/10/28 09:18:52;;;;;;;;;;;;;;;19.26;40.90;96434.53;6116937;19;1070;-73
2022/10/28 09:20:56;;;;;;;;;;;;;;;19.27;41.08;96426.38;6121188;19;1010;-73
2022/10/28 09:23:00;;;;;;;;;;;;;;;19.27;41.32;96431.72;6122914;19;1026;-72
2022/10/28 09:25:04;;;;;;;;;;;;;;;19.28;41.44;96421.88;6120217;19;1849;-73
2022/10/28 09:27:13;;;;;;;;;;;;;;;19.29;41.12;96423.53;6093819;19;1226;-72
2022/10/28 09:29:26;;;;;;;;;;;;;;;19.31;41.16;96421.53;6122804;19;1103;-70
2022/10/28 09:31:34;;;;;;;;;;;;;;;19.31;41.53;96417.03;6122961;19;1044;-70
2022/10/28 09:33:56;;;;;;;;;;;;;;;19.33;41.50;96414.22;6123011;19;1134;-69
2022/10/28 09:35:59;;;;;;;;;;;;;;;19.33;41.48;96414.22;6119783;19;1342;-70
2022/10/28 09:38:08;;;;;;;;;;;;;;;19.31;42.00;96413.53;6094769;19;1136;-70
2022/10/28 09:40:17;;;;;;;;;;;;;;;19.32;42.00;96405.41;6120153;19;1455;-71
2022/10/28 09:42:26;;;;;;;;;;;;;;;19.33;41.78;96399.06;6122168;19;1041;-71
2022/10/28 09:44:34;;;;;;;;;;;;;;;19.32;41.85;96388.53;6121716;19;1859;-71
2022/10/28 09:46:37;;;;;;;;;;;;;;;19.33;41.89;96390.22;6122343;19;1047;-71
2022/10/28 09:48:42;;;;;;;;;;;;;;;19.32;42.26;96381.41;6108654;19;1157;-71
2022/10/28 09:50:51;;;;;;;;;;;;;;;19.32;41.91;96376.06;6108812;19;1274;-71
2022/10/28 09:52:58;;;;;;;;;;;;;;;19.32;41.86;96375.22;6120688;19;1092;-71
2022/10/28 09:55:08;;;;;;;;;;;;;;;19.32;42.31;96375.22;6121556;19;1013;-71
2022/10/28 09:57:11;;;;;;;;;;;;;;;19.33;42.11;96366.25;6121603;19;1017;-72
2022/10/28 09:59:16;;;;;;;;;;;;;;;19.32;42.05;96367.22;6119739;19;1412;-71
2022/10/28 10:01:20;;;;;;;;;;;;;;;19.33;42.55;96363.56;6094313;19;1119;-71
2022/10/28 10:03:24;;;;;;;;;;;;;;;19.33;42.21;96367.06;6121920;19;1025;-71
2022/10/28 10:05:29;;;;;;;;;;;;;;;19.34;42.17;96373.22;6119334;19;1849;-71
2022/10/28 10:07:38;;;;;;;;;;;;;;;19.33;42.60;96367.06;6121735;19;1029;-71
2022/10/28 10:09:41;;;;;;;;;;;;;;;19.35;42.33;96367.75;6121856;19;1069;-71
2022/10/28 10:11:46;;;;;;;;;;;;;;;19.34;42.43;96357.22;6093049;19;1048;-70
2022/10/28 10:13:51;;;;;;;;;;;;;;;19.35;42.56;96351.75;6119477;19;1303;-71
2022/10/28 10:15:56;;;;;;;;;;;;;;;19.36;42.52;96355.25;6121092;19;1046;-71
2022/10/28 10:18:01;;;;;;;;;;;;;;;19.35;42.46;96348.22;6121553;19;1050;-70
2022/10/28 10:20:06;;;;;;;;;;;;;;;19.35;42.80;96348.22;6120516;19;1065;-70
2022/10/28 10:22:10;;;;;;;;;;;;;;;19.34;42.65;96344.72;6117759;19;1025;-70
2022/10/28 10:24:32;;;;;;;;;;;;;;;19.34;42.94;96350.06;6101103;19;1012;-72
2022/10/28 10:26:39;;;;;;;;;;;;;;;19.35;43.01;96343.75;6118378;19;1574;-71
2022/10/28 10:28:46;;;;;;;;;;;;;;;19.36;43.08;96340.06;6119845;19;1495;-70
2022/10/28 10:30:51;;;;;;;;;;;;;;;19.36;42.69;96336.56;6119157;19;1450;-71
2022/10/28 10:32:55;;;;;;;;;;;;;;;19.37;42.64;96344.38;6121451;19;1181;-70
2022/10/28 10:35:00;;;;;;;;;;;;;;;19.37;43.02;96336.41;6092134;19;1153;-70
2022/10/28 10:37:04;;;;;;;;;;;;;;;19.38;43.10;96338.06;6121573;19;997;-71
2022/10/28 10:39:21;;;;;;;;;;;;;;;19.37;43.07;96335.56;6119240;19;1478;-71
2022/10/28 10:41:40;;;;;;;;;;;;;;;19.39;42.80;96334.41;6120414;19;1024;-70
2022/10/28 10:43:44;;;;;;;;;;;;;;;19.39;43.14;96329.06;6120744;19;1126;-71
2022/10/28 10:45:52;;;;;;;;;;;;;;;19.40;43.20;96330.72;6091368;19;1851;-70
2022/10/28 10:48:10;;;;;;;;;;;;;;;19.40;43.30;96327.22;6120836;19;1053;-71
2022/10/28 10:50:24;;;;;;;;;;;;;;;19.40;43.38;96322.72;6118669;19;1504;-71
2022/10/28 10:52:28;;;;;;;;;;;;;;;19.41;43.03;96315.56;6119816;19;1046;-71
2022/10/28 10:54:33;;;;;;;;;;;;;;;19.41;43.27;96323.56;6120607;19;1042;-70
2022/10/28 10:56:39;;;;;;;;;;;;;;;19.42;43.00;96311.91;6105229;19;1222;-72
2022/10/28 10:58:50;;;;;;;;;;;;;;;19.42;43.35;96317.22;6108052;19;1005;-71
2022/10/28 11:00:55;;;;;;;;;;;;;;;19.46;42.86;96313.19;6120659;19;1132;-71
2022/10/28 11:02:59;;;;;;;;;;;;;;;19.47;43.21;96309.56;6118408;19;1557;-71
2022/10/28 11:05:04;;;;;;;;;;;;;;;19.48;42.90;96305.88;6119452;19;1861;-73
2022/10/28 11:07:07;;;;;;;;;;;;;;;19.49;43.16;96306.69;6119561;19;1104;-67
2022/10/28 11:09:21;;;;;;;;;;;;;;;19.49;43.09;96312.03;6092325;19;1016;-67
2022/10/28 11:11:33;;;;;;;;;;;;;;;19.49;43.17;96301.38;6119330;19;1041;-67
2022/10/28 11:13:39;;;;;;;;;;;;;;;19.49;43.31;96302.22;6119932;19;1162;-69
2022/10/28 11:15:42;;;;;;;;;;;;;;;19.50;43.41;96303.88;6118202;19;1509;-69
2022/10/28 11:17:55;;;;;;;;;;;;;;;19.53;43.15;96297.41;6117812;19;1475;-68
2022/10/28 11:20:00;;;;;;;;;;;;;;;19.54;42.92;96299.06;6091716;19;1151;-69
2022/10/28 11:22:15;;;;;;;;;;;;;;;19.55;43.30;96295.38;6119528;19;1117;-70
2022/10/28 11:24:28;;;;;;;;;;;;;;;19.55;43.27;96292.69;6119412;19;1073;-69
2022/10/28 11:26:36;;;;;;;;;;;;;;;19.54;43.52;96291.06;6117188;19;1867;-69
2022/10/28 11:28:48;;;;;;;;;;;;;;;19.54;43.51;96289.22;6119977;19;959;-69
2022/10/28 11:30:58;;;;;;;;;;;;;;;19.53;43.57;96276.91;6100046;19;1079;-70
2022/10/28 11:33:07;;;;;;;;;;;;;;;19.56;43.15;96281.06;6118560;19;1126;-70
2022/10/28 11:35:24;;;;;;;;;;;;;;;19.57;43.52;96282.69;6119411;19;1108;-69
2022/10/28 11:37:35;;;;;;;;;;;;;;;19.57;43.34;96278.19;6118907;19;1123;-69
2022/10/28 11:39:42;;;;;;;;;;;;;;;19.57;43.27;96277.38;6119085;19;1021;-69
2022/10/28 11:41:54;;;;;;;;;;;;;;;19.58;43.18;96268.38;6104943;19;1120;-70
2022/10/28 11:44:01;;;;;;;;;;;;;;;19.59;43.15;96275.38;6104608;19;1117;-71
2022/10/28 11:46:08;;;;;;;;;;;;;;;19.59;43.50;96270.03;6118156;19;1842;-76
2022/10/28 11:48:23;;;;;;;;;;;;;;;19.59;42.52;96262.03;6117523;19;1392;-76
2022/10/28 11:50:36;;;;;;;;;;;;;;;19.60;42.16;96266.34;6117811;19;1319;-76
2022/10/28 11:52:50;;;;;;;;;;;;;;;19.61;42.30;96262.69;6118176;19;1110;-75
2022/10/28 11:55:02;;;;;;;;;;;;;;;19.59;42.01;96270.03;6094529;19;1495;-75
2022/10/28 11:57:09;;;;;;;;;;;;;;;19.60;41.92;96261.03;6118549;19;1025;-76
2022/10/28 11:59:27;;;;;;;;;;;;;;;19.59;41.49;96259.38;6118833;19;1080;-76
2022/10/28 12:01:37;;;;;;;;;;;;;;;19.60;41.53;96255.69;6118780;19;1008;-76
2022/10/28 12:04:02;;;;;;;;;;;;;;;19.59;41.67;96260.19;6118673;19;955;-76
2022/10/28 12:06:14;;;;;;;;;;;;;;;19.61;41.65;96258.19;6089364;19;1860;-76
2022/10/28 12:08:23;;;;;;;;;;;;;;;19.61;41.38;96252.84;6117311;19;1472;-70
2022/10/28 12:10:36;;;;;;;;;;;;;;;19.61;41.53;96252.03;6118259;19;1059;-71
2022/10/28 12:12:45;;;;;;;;;;;;;;;19.60;41.46;96250.34;6119762;19;1136;-71
2022/10/28 12:14:58;;;;;;;;;;;;;;;19.59;41.27;96244.19;6118814;19;1475;-71
2022/10/28 12:17:11;;;;;;;;;;;;;;;19.61;41.56;96252.84;6087734;19;1527;-70
2022/10/28 12:19:18;;;;;;;;;;;;;;;19.60;41.39;96245.03;6117078;19;1392;-71
2022/10/28 12:21:25;;;;;;;;;;;;;;;19.59;41.37;96241.53;6118248;19;1115;-70
2022/10/28 12:23:31;;;;;;;;;;;;;;;19.58;41.24;96244.38;6117892;19;1190;-69
2022/10/28 12:25:35;;;;;;;;;;;;;;;19.58;40.84;96236.38;6117142;19;1837;-70
2022/10/28 12:27:42;;;;;;;;;;;;;;;19.58;40.80;96239.88;6096068;19;1462;-70
2022/10/28 12:29:48;;;;;;;;;;;;;;;19.59;40.45;96235.38;6116285;19;1478;-70
2022/10/28 12:31:57;;;;;;;;;;;;;;;19.61;40.66;96244.03;6115735;19;1522;-69
2022/10/28 12:34:03;;;;;;;;;;;;;;;19.60;40.33;96237.03;6117966;19;1136;-69
2022/10/28 12:36:19;;;;;;;;;;;;;;;19.63;40.72;96234.00;6116443;19;1381;-70
2022/10/28 12:38:27;;;;;;;;;;;;;;;19.63;40.58;96234.84;6106974;19;1056;-69
2022/10/28 12:40:33;;;;;;;;;;;;;;;19.64;41.16;96238.34;6102806;19;1047;-69
2022/10/28 12:42:40;;;;;;;;;;;;;;;19.62;41.16;96221.69;6118666;19;1060;-70
2022/10/28 12:44:44;;;;;;;;;;;;;;;19.62;41.47;96227.84;6116423;19;1475;-70
2022/10/28 12:46:53;;;;;;;;;;;;;;;19.61;41.35;96236.03;6115777;19;1853;-70
2022/10/28 12:49:00;;;;;;;;;;;;;;;19.63;41.57;96228.66;6117214;19;1060;-69
2022/10/28 12:51:07;;;;;;;;;;;;;;;19.63;41.70;96228.66;6087251;19;1524;-70
2022/10/28 12:53:22;;;;;;;;;;;;;;;19.63;41.81;96224.19;6115669;19;1410;-75
2022/10/28 12:55:29;;;;;;;;;;;;;;;19.65;41.44;96219.50;6120853;19;1013;-70
2022/10/28 12:57:34;;;;;;;;;;;;;;;19.67;41.82;96220.16;6123286;19;1034;-71
2022/10/28 12:59:40;;;;;;;;;;;;;;;19.70;41.87;96223.47;6124271;19;1063;-71
2022/10/28 13:01:46;;;;;;;;;;;;;;;19.69;41.93;96217.31;6099256;19;1423;-72
2022/10/28 13:03:51;;;;;;;;;;;;;;;19.69;42.03;96219.13;6123115;19;1132;-72
2022/10/28 13:06:03;;;;;;;;;;;;;;;19.69;41.99;96212.00;6117152;19;1873;-85
2022/10/28 13:08:22;;;;;;;;;;;;;;;19.70;42.14;96220.81;6123890;19;1462;-84
2022/10/28 13:10:30;;;;;;;;;;;;;;;19.70;42.02;96213.63;6125782;19;1159;-84
2022/10/28 13:12:45;;;;;;;;;;;;;;;19.71;42.13;96211.78;6111570;19;1387;-81
2022/10/28 13:15:03;;;;;;;;;;;;;;;19.71;42.24;96217.13;6110684;19;1400;-84
2022/10/28 13:17:30;;;;;;;;;;;;;;;19.71;42.15;96217.13;6126434;19;1104;-84
2022/10/28 13:19:48;;;;;;;;;;;;;;;19.71;42.19;96220.63;6123707;19;1540;-84
2022/10/28 13:22:03;;;;;;;;;;;;;;;19.71;42.57;96209.13;6123587;19;1392;-85
2022/10/28 13:24:13;;;;;;;;;;;;;;;19.71;42.29;96209.97;6112211;19;1099;-84
2022/10/28 13:26:23;;;;;;;;;;;;;;;19.70;42.34;96213.63;6111227;19;1857;-85
2022/10/28 13:28:29;;;;;;;;;;;;;;;19.71;42.62;96209.97;6123524;19;1527;-84
2022/10/28 13:30:34;;;;;;;;;;;;;;;19.72;42.40;96214.31;6125104;19;1017;-86
2022/10/28 13:32:38;;;;;;;;;;;;;;;19.71;42.64;96203.78;6122882;19;1504;-83
2022/10/28 13:34:42;;;;;;;;;;;;;;;19.73;42.59;96218.63;6125553;19;1025;-78
2022/10/28 13:39:01;;;;;;;;;;;;;;;19.73;42.61;96213.28;6072396;19;1583;-85
2022/10/28 13:41:12;;;;;;;;;;;;;;;19.74;42.94;96214.94;6121900;19;1831;-89
2022/10/28 13:43:20;;;;;;;;;;;;;;;19.73;42.60;96212.47;6128198;19;1410;-89
2022/10/28 13:45:38;;;;;;;;;;;;;;;19.73;42.98;96202.63;6129946;19;1045;-84